Nashua, MT (59248)

8:23 AM MDT on October 31, 2014 (GMT -0600)
nashua | Change Station
CLOSE
Current Station
Personal Weather Station
Location: Nashua, MT
Elevation: 2156 ft
Nearby Weather Stations
Active Advisory: Lake Wind Advisory

Elev 2156 ft 48.11 °N, 106.45 °W | Updated 23 minutes ago

Partly Cloudy
Partly Cloudy
31.6 °F
Feels Like 22 °F
N
12.6
Wind Variable Wind from ENE
Gusts 16.5 mph

Today
High -- | Low -- °F
--% Chance of Precip.
Yesterday
High -- | Low -- °F
Precip. -- in
7:49 AM 5:48 PM
First Quarter, 55% visible
Pressure 30.15 in
Visibility 6.0 miles
Clouds Clear
Windchill 22 °F
Dew Point 28 °F
Humidity 86%
Rainfall 0.00 in
Snow Depth Not available.
UV 0 out of 12
Pollen 2.30 out of 12
Air Quality Not available.
Flu Activity Not available.
METAR KGGW 311353Z AUTO 12020KT 6SM BR CLR 00/M02 A3007 RMK AO2 SLP208 T00001022

More Conditions Fewer Conditions

Pressure 30.15 in
Visibility 6.0 miles
Clouds Clear
Windchill 22 °F
Dew Point 28 °F
Humidity 86%
Rainfall 0.00 in
Snow Depth Not available.
UV 0 out of 12
Pollen 2.30 out of 12
Air Quality Not available.
Flu Activity Not available.
METAR KGGW 311353Z AUTO 12020KT 6SM BR CLR 00/M02 A3007 RMK AO2 SLP208 T00001022

More Conditions Fewer Conditions

10-Day Weather Forecast

Almanac

Astronomy

Oct. 31, 2014 Rise Set
Actual Time
Civil Twilight
Nautical Twilight
Astronomical Twilight
Moon
Length of Visible Light
Length of Day
Tomorrow will be .
, % of the Moon is Illuminated

Today's Extremes

State Highs State Lows

Community

WunderPhotos

Upload Photos

1,766,617 photos uploaded!

WunderBlogs® & News

Nearby

Air Quality

  Air Quality AQ Index Pollutant
Not available.

Snow Depth

Station Depth Elevation

Earthquake Activity

City Distance Mag. Time & Date
Minimum magnitude displayed is 2.5.

Coastal Water Temperatures

Place Temperature

Nearby Weather Stations